AirNav   Bose Proflight or Bose A20?
 
 957 users online  

KPOH Pocahontas Municipal Airport
Pocahontas, Iowa, USA

GOING TO POCAHONTAS?


FAA INFORMATION EFFECTIVE 20 JUNE 2019

Location

FAA Identifier: POH
Lat/Long: 42-44-34.4000N / 094-38-50.5000W
42-44.573333N / 094-38.841667W
42.7428889 / -94.6473611
(estimated)
Elevation: 1225.5 ft. / 373.5 m (surveyed)
Variation: 02E (2010)
From city: 1 mile NE of POCAHONTAS, IA
Time zone: UTC -5 (UTC -6 during Standard Time)
Zip code: 50574

Airport Operations

Airport use: Open to the public
Activation date: 04/1940
Control tower: no
ARTCC: MINNEAPOLIS CENTER
FSS: FORT DODGE FLIGHT SERVICE STATION
NOTAMs facility: FOD (NOTAM-D service available)
Attendance: UNATNDD
FOR SVC CALL SHERIFFS OFFICE (712) 335-3308.
Wind indicator: lighted
Segmented circle: yes
Lights: ACTVT MIRL RY 12/30; PAPI RYS 12 & 30; REIL RYS 12 & 30 - CTAF.
Beacon: white-green (lighted land airport)
Operates sunset to sunrise.

Airport Communications

CTAF/UNICOM: 122.8
  • APCH/DEP SVC PROVIDED BY MINNEAPOLIS ARTCC ON FREQS 134.0/288.3 (FORT DODGE RCAG).

Nearby radio navigation aids

VOR radial/distance  VOR name  Freq  Var
FODr290/17.4FORT DODGE VORTAC113.5007E
SPWr131/35.0SPENCER VOR/DME110.0005E

 
NDB name  Hdg/Dist  Freq  Var  ID
POCAHONTASat field42802EPOH .--. --- ....
EMMETSBURG169/21.641004EEGQ . --. --.-
PUFF173/36.734501EPUF .--. ..- ..-.
WEBSTER CITY295/38.832303EEBS . -... ...
CLARION267/39.138703ECAV -.-. .- ...-

Airport Services

Fuel available: 100LL
Parking: hangars and tiedowns
Airframe service: NONE
Powerplant service: NONE
Bottled oxygen: NONE
Bulk oxygen: NONE

Runway Information

Runway 12/30

Dimensions: 4100 x 60 ft. / 1250 x 18 m
Surface: asphalt, in excellent condition
Weight bearing capacity: 
Single wheel: 15.0
Runway edge lights: medium intensity
RUNWAY 12  RUNWAY 30
Latitude: 42-44.742647N42-44.390550N
Longitude: 094-39.273460W094-38.492360W
Elevation: 1225.5 ft.1221.0 ft.
Traffic pattern: leftleft
Runway heading: 119 magnetic, 121 true299 magnetic, 301 true
Markings: nonprecision, in good conditionnonprecision, in good condition
Visual slope indicator: 2-light PAPI on left (3.00 degrees glide path)2-light PAPI on left (3.00 degrees glide path)
Runway end identifier lights: yesyes
Touchdown point: yes, no lightsyes, no lights
Obstructions: 59 ft. tree, 921 ft. from runway, 353 ft. left of centerline, 12:1 slope to clear15 ft. road, 520 ft. from runway, 295 ft. right of centerline, 21:1 slope to clear

Runway 18/36

Dimensions: 1999 x 135 ft. / 609 x 41 m
Surface: turf, in fair condition
Runway edge markings: RWY 18 /36 MARKED WITH YELLOW CONES
Gradient: N
RUNWAY 18  RUNWAY 36
Latitude: 42-44.752270N42-44.424180N
Longitude: 094-38.742010W094-38.775770W
Elevation: 1224.1 ft.1218.3 ft.
Traffic pattern: leftleft
Runway heading: 183 magnetic, 185 true003 magnetic, 005 true
Touchdown point: yes, no lightsyes, no lights
Obstructions: 19 ft. road, 405 ft. from runway, 21:1 slope to clearnone

Airport Ownership and Management from official FAA records

Ownership: Publicly-owned
Owner: CITY OF POCAHONTAS
CITY HALL 23 WEST ELM
POCAHONTAS, IA 50574
Phone 712-335-4841
Manager: GARY MC CARTAN
51217 - 225TH AVENUE
POCAHONTAS, IA 50574
Phone 712-335-4382
OFFICE NUMBER 712-335-4382

Airport Operational Statistics

Aircraft based on the field: 14
Single engine airplanes: 13
Helicopters: 1
    
Aircraft operations: avg 86/week *
57% transient general aviation
43% local general aviation
* for 12-month period ending 09 August 2018

Additional Remarks

RY 30 IS CALM WIND RY.
FOR CD CTC MINNEAPOLIS ARTCC AT 651-463-5588.

Instrument Procedures

NOTE: All procedures below are presented as PDF files. If you need a reader for these files, you should download the free Adobe Reader.

NOT FOR NAVIGATION. Please procure official charts for flight.
FAA instrument procedures published for use from 20 June 2019 at 0901Z to 19 July 2019 at 0900Z.

 
IAPs - Instrument Approach Procedures
RNAV (GPS) RWY 12   download (187KB)
RNAV (GPS) RWY 30   download (210KB)
VOR/DME RWY 30   download (186KB)
NDB RWY 12   download (158KB)
NOTE: Special Take-Off Minimums/Departure Procedures apply   download (158KB)

Other nearby airports with instrument procedures:

KEGQ - Emmetsburg Municipal Airport (22 nm N)
KFOD - Fort Dodge Regional Airport (23 nm SE)
KAXA - Algona Municipal Airport (26 nm NE)
KSKI - Sac City Municipal Airport (26 nm SW)
KSLB - Storm Lake Municipal Airport (28 nm W)
 
Loc | Ops | Rwys | IFR | FBO | Links
Com | Nav | Svcs | Stats | Notes
Area around KPOH (Pocahontas Municipal Airport)
 
Road maps at: MapQuest Bing Google
 
Aerial photo
WARNING: Photo may not be current or correct
Aerial photo of KPOH (Pocahontas Municipal Airport)
Photo by Iden Mersereau
Photo taken 08-Jul-2018
looking north.

Do you have a better or more recent aerial photo of Pocahontas Municipal Airport that you would like to share? If so, please send us your photo.

 
Sectional chart

 
Airport distance calculator
Flying to Pocahontas Municipal Airport? Find the distance to fly.

From to KPOH

Sunrise and sunset
Times for 20-Jun-2019
 Local
(UTC-5)
 Zulu
(UTC)
Morning civil twilight05:0610:06
Sunrise05:4110:41
Sunset20:5901:59
Evening civil twilight21:3402:34

Current date and time
Zulu (UTC)  21-Jun-2019 00:17:42
Local (UTC-5)  20-Jun-2019 19:17:42
 
METAR
KFOD 
25nm SE 
202356Z AUTO 15005KT 10SM BKN080 23/16 A2979 RMK AO2 SLP107 60010 T02330161 10250 20183 58000
KAXA 
26nm NE 
202355Z AUTO 14009G15KT 10SM SCT046 24/18 A2977 RMK A01
KSLB 
27nm W 
202355Z AUTO 15008KT 10SM CLR 23/18 A2973 RMK AO2
KSPW 
36nm NW 
202353Z AUTO 17014G21KT 10SM BKN034 BKN045 26/18 A2975 RMK AO2 SLP067 T02560178 10261 20206 55002
KCAV 
39nm E 
202355Z AUTO 16009G16KT 10SM SCT090 25/14 A2979 RMK AO2 PWINO
KEBS 
40nm SE 
202355Z AUTO 14011KT 10SM FEW085 23/15 A2978 RMK AO2
KEST 
40nm N 
202352Z AUTO 14016KT 10SM FEW045 BKN065 BKN110 22/17 A2975 RMK AO2 RAB36E46 SLP070 P0000 60000 T02170167 10228 20189 56002
KCKP 
40nm W 
202355Z AUTO 15006KT 10SM CLR 24/18 A2975 RMK AO2 60003 T02410178 10255 20189
KCIN 
43nm S 
202355Z AUTO 14009KT 10SM CLR 25/18 A2976 RMK AO2
TAF
KFOD 
25nm SE 
201734Z 2018/2118 15009KT P6SM VCSH SCT035 BKN060 FM210200 11006KT P6SM BKN080 FM210900 13008KT P6SM VCSH BKN025 FM211300 13010G18KT P6SM VCTS OVC015CB
NOTAMs
Click for the latest NOTAMs
NOTAMs are issued by the DoD/FAA and will open in a separate window not controlled by AirNav.

 

 
 

FBO, Fuel Providers, and Aircraft Ground Support

  
 Business Name 
 
 Contact 
 
 Services / Description 
 
Fuel Prices
 
Comments
  
City of Pocahontas 712-335-4841
no information available

If you are affiliated with City of Pocahontas and would like to show here your services, contact info, web link, logo, and more, click here
no prices available
 
   3 read write
Update Fuel Prices
 

Would you like to see your business listed on this page?

 If your business provides an interesting product or service to pilots, flight crews, aircraft, or users of the Pocahontas Municipal Airport, you should consider listing it here.  To start the listing process, click on the button below
 
Add a business
 

Other Pages about Pocahontas Municipal Airport

Page from the Iowa Airport Directory
 
Update a link
 
Copyright © AirNav, LLC. All rights reserved. Privacy Policy  Contact